createdAt,value
2022-09-28T00:02:25.726Z,15.57
2022-09-28T00:04:52.649Z,17.83
2022-09-28T00:07:19.629Z,17.00
2022-09-28T00:09:46.427Z,16.38
2022-09-28T00:12:13.269Z,16.52
2022-09-28T00:14:44.731Z,15.23
2022-09-28T00:17:12.489Z,16.37
2022-09-28T00:19:40.409Z,15.15
2022-09-28T00:22:07.368Z,12.73
2022-09-28T00:24:34.220Z,15.50
2022-09-28T00:27:02.628Z,14.50
2022-09-28T00:29:33.745Z,15.67
2022-09-28T00:32:05.311Z,15.90
2022-09-28T00:34:36.930Z,12.85
2022-09-28T00:37:04.647Z,12.27
2022-09-28T00:39:35.973Z,12.73
2022-09-28T00:42:03.591Z,15.17
2022-09-28T00:45:02.640Z,11.77
2022-09-28T00:47:40.018Z,12.40
2022-09-28T00:50:28.139Z,11.20
2022-09-28T00:53:00.030Z,12.20
2022-09-28T00:55:37.387Z,11.77
2022-09-28T00:58:05.267Z,13.27
2022-09-28T01:00:32.335Z,10.98
2022-09-28T01:02:59.894Z,9.73
2022-09-28T01:05:27.130Z,10.05
2022-09-28T01:07:54.227Z,12.30
2022-09-28T01:10:20.990Z,12.07
2022-09-28T01:12:47.928Z,9.05
2022-09-28T01:15:15.689Z,9.35
2022-09-28T01:17:42.429Z,10.60
2022-09-28T01:20:27.307Z,10.47
2022-09-28T01:23:31.650Z,8.60
2022-09-28T01:26:22.515Z,8.75
2022-09-28T01:28:49.368Z,9.57
2022-09-28T01:31:16.437Z,9.63
2022-09-28T01:33:51.348Z,11.23
2022-09-28T01:36:36.827Z,11.05
2022-09-28T01:39:26.668Z,9.90
2022-09-28T01:41:54.888Z,8.38
2022-09-28T01:44:21.968Z,9.23
2022-09-28T01:46:50.026Z,8.23
2022-09-28T01:49:20.667Z,10.73
2022-09-28T01:52:24.969Z,7.97
2022-09-28T01:55:15.012Z,8.25
2022-09-28T01:57:59.428Z,8.38
2022-09-28T02:00:26.391Z,7.40
2022-09-28T02:02:57.609Z,7.38
2022-09-28T02:05:26.653Z,7.85
2022-09-28T02:08:06.867Z,7.35
2022-09-28T02:10:52.928Z,8.27
2022-09-28T02:13:34.989Z,9.93
2022-09-28T02:16:06.899Z,6.55
2022-09-28T02:18:33.848Z,7.05
2022-09-28T02:21:09.630Z,10.25
2022-09-28T02:23:37.258Z,7.05
2022-09-28T02:26:08.168Z,6.67
2022-09-28T02:28:35.208Z,8.25
2022-09-28T02:31:02.242Z,6.97
2022-09-28T02:33:36.335Z,9.32
2022-09-28T02:36:03.791Z,7.13
2022-09-28T02:38:31.329Z,7.30
2022-09-28T02:41:08.907Z,8.55
2022-09-28T02:43:44.586Z,6.97
2022-09-28T02:46:37.108Z,7.15
2022-09-28T02:49:21.037Z,6.50
2022-09-28T02:51:51.527Z,7.47
2022-09-28T02:54:29.929Z,6.30
2022-09-28T02:57:20.510Z,6.03
2022-09-28T03:00:08.788Z,7.60
2022-09-28T03:02:41.147Z,7.90
2022-09-28T03:05:38.111Z,6.43
2022-09-28T03:08:29.913Z,11.30
2022-09-28T03:11:07.363Z,8.30
2022-09-28T03:13:34.588Z,7.05
2022-09-28T03:16:15.316Z,7.00
2022-09-28T03:18:42.187Z,6.63
2022-09-28T03:21:10.990Z,7.22
2022-09-28T03:23:37.810Z,6.25
2022-09-28T03:26:04.729Z,6.97
2022-09-28T03:28:31.606Z,5.55
2022-09-28T03:30:58.490Z,6.43
2022-09-28T03:33:25.373Z,6.68
2022-09-28T03:35:52.310Z,6.65
2022-09-28T03:38:19.470Z,5.78
2022-09-28T03:40:59.465Z,5.88
2022-09-28T03:43:26.930Z,7.73
2022-09-28T03:45:55.398Z,6.20
2022-09-28T03:48:27.615Z,7.93
2022-09-28T03:50:57.711Z,6.13
2022-09-28T03:53:25.007Z,5.45
2022-09-28T03:55:53.369Z,6.27
2022-09-28T03:58:21.194Z,5.90
2022-09-28T04:00:51.411Z,8.20
2022-09-28T04:03:18.248Z,5.82
2022-09-28T04:05:52.107Z,6.53
2022-09-28T04:08:19.308Z,7.07
2022-09-28T04:10:46.330Z,7.35
2022-09-28T04:13:13.268Z,6.43
2022-09-28T04:15:40.191Z,7.65
2022-09-28T04:18:11.289Z,6.10
2022-09-28T04:20:41.009Z,6.50
2022-09-28T04:23:07.968Z,6.97
2022-09-28T04:25:34.809Z,6.38
2022-09-28T04:28:20.650Z,6.85
2022-09-28T04:30:47.890Z,7.53
2022-09-28T04:33:14.828Z,6.03
2022-09-28T04:35:41.709Z,6.65
2022-09-28T04:38:08.578Z,4.90
2022-09-28T04:40:35.418Z,8.73
2022-09-28T04:43:02.288Z,6.63
2022-09-28T04:45:29.197Z,6.50
2022-09-28T04:47:56.121Z,6.47
2022-09-28T04:50:23.024Z,7.13
2022-09-28T04:52:49.848Z,7.10
2022-09-28T04:55:17.068Z,7.65
2022-09-28T04:57:43.907Z,7.83
2022-09-28T05:00:11.638Z,6.43
2022-09-28T05:02:39.225Z,10.90
2022-09-28T05:05:06.569Z,9.20
2022-09-28T05:07:33.387Z,8.40
2022-09-28T05:10:00.693Z,6.50
2022-09-28T05:12:27.535Z,8.65
2022-09-28T05:14:54.450Z,7.97
2022-09-28T05:17:21.628Z,9.30
2022-09-28T05:19:48.537Z,7.90
2022-09-28T05:22:15.908Z,9.57
2022-09-28T05:24:42.891Z,8.73
2022-09-28T05:27:09.788Z,8.18
2022-09-28T05:29:36.591Z,9.10
2022-09-28T05:32:03.645Z,8.73
2022-09-28T05:34:30.649Z,9.30
2022-09-28T05:36:57.725Z,10.15
2022-09-28T05:39:24.507Z,11.68
2022-09-28T05:41:51.427Z,10.52
2022-09-28T05:44:18.333Z,10.40
2022-09-28T05:46:45.304Z,9.87
2022-09-28T05:49:12.989Z,9.18
2022-09-28T05:51:39.888Z,9.88
2022-09-28T05:54:06.708Z,9.07
2022-09-28T05:56:33.833Z,9.55
2022-09-28T05:59:00.728Z,9.37
2022-09-28T06:01:27.634Z,10.50
2022-09-28T06:03:54.507Z,11.30
2022-09-28T06:06:21.328Z,8.50
2022-09-28T06:08:48.568Z,9.43
2022-09-28T06:11:15.472Z,8.57
2022-09-28T06:13:42.289Z,10.15
2022-09-28T06:16:10.630Z,8.25
2022-09-28T06:18:37.507Z,10.23
2022-09-28T06:21:06.010Z,9.38
2022-09-28T06:23:32.829Z,10.90
2022-09-28T06:26:00.181Z,9.05
2022-09-28T06:28:27.083Z,9.27
2022-09-28T06:30:54.186Z,8.85
2022-09-28T06:33:22.013Z,9.27
2022-09-28T06:35:48.847Z,7.57
2022-09-28T06:38:15.688Z,9.25
2022-09-28T06:40:42.570Z,8.52
2022-09-28T06:43:15.163Z,9.57
2022-09-28T06:45:42.840Z,8.82
2022-09-28T06:48:10.547Z,8.10
2022-09-28T06:50:39.633Z,8.02
2022-09-28T06:53:07.368Z,7.93
2022-09-28T06:55:34.254Z,8.38
2022-09-28T06:58:02.987Z,7.53
2022-09-28T07:00:34.115Z,7.40
2022-09-28T07:03:05.449Z,8.45
2022-09-28T07:05:34.893Z,8.93
2022-09-28T07:08:02.110Z,8.77
2022-09-28T07:10:29.468Z,7.97
2022-09-28T07:12:57.033Z,8.67
2022-09-28T07:15:24.408Z,8.77
2022-09-28T07:18:02.561Z,9.07
2022-09-28T07:20:31.433Z,9.57
2022-09-28T07:23:11.150Z,8.15
2022-09-28T07:25:45.617Z,7.97
2022-09-28T07:28:12.537Z,7.53
2022-09-28T07:30:39.569Z,8.50
2022-09-28T07:33:07.569Z,7.65
2022-09-28T07:35:37.009Z,8.77
2022-09-28T07:38:07.507Z,8.07
2022-09-28T07:40:53.713Z,8.13
2022-09-28T07:43:20.944Z,8.15
2022-09-28T07:45:52.475Z,8.43
2022-09-28T07:48:19.467Z,8.13
2022-09-28T07:50:56.848Z,8.17
2022-09-28T07:53:25.054Z,9.20
2022-09-28T07:55:52.943Z,8.25
2022-09-28T07:58:21.168Z,8.10
2022-09-28T08:00:49.174Z,8.20
2022-09-28T08:03:17.048Z,7.57
2022-09-28T08:05:43.951Z,7.95
2022-09-28T08:08:10.805Z,7.38
2022-09-28T08:10:37.911Z,8.05
2022-09-28T08:13:06.482Z,8.23
2022-09-28T08:15:37.014Z,7.77
2022-09-28T08:18:06.748Z,7.80
2022-09-28T08:20:52.550Z,7.68
2022-09-28T08:23:20.413Z,8.30
2022-09-28T08:25:49.178Z,9.88
2022-09-28T08:28:17.794Z,7.67
2022-09-28T08:30:48.475Z,8.27
2022-09-28T08:33:16.249Z,7.85
2022-09-28T08:35:43.207Z,8.50
2022-09-28T08:38:10.790Z,8.30
2022-09-28T08:41:15.697Z,9.20
2022-09-28T08:43:54.466Z,8.82
2022-09-28T08:46:25.091Z,8.68
2022-09-28T08:49:20.500Z,9.23
2022-09-28T08:51:49.183Z,9.65
2022-09-28T08:54:37.503Z,9.53
2022-09-28T08:57:14.667Z,7.90
2022-09-28T08:59:50.524Z,9.20
2022-09-28T09:02:25.581Z,8.82
2022-09-28T09:04:52.704Z,9.55
2022-09-28T09:07:34.582Z,7.70
2022-09-28T09:10:14.962Z,8.95
2022-09-28T09:13:12.513Z,9.88
2022-09-28T09:16:05.394Z,7.97
2022-09-28T09:18:54.719Z,8.40
2022-09-28T09:21:36.588Z,7.93
2022-09-28T09:24:27.483Z,8.85
2022-09-28T09:27:27.522Z,8.25
2022-09-28T09:30:14.464Z,7.80
2022-09-28T09:33:24.231Z,7.82
2022-09-28T09:36:03.428Z,7.70
2022-09-28T09:38:46.163Z,9.27
2022-09-28T09:41:35.128Z,7.13
2022-09-28T09:44:20.622Z,9.15
2022-09-28T09:46:49.483Z,8.00
2022-09-28T09:49:17.833Z,8.70
2022-09-28T09:52:07.662Z,9.00
2022-09-28T09:55:29.998Z,8.15
2022-09-28T09:58:16.139Z,8.13
2022-09-28T10:00:47.441Z,7.80
2022-09-28T10:03:28.746Z,6.93
2022-09-28T10:06:01.155Z,6.88
2022-09-28T10:08:27.959Z,7.07
2022-09-28T10:11:02.487Z,8.90
2022-09-28T10:13:29.422Z,7.40
2022-09-28T10:15:56.444Z,7.30
2022-09-28T10:18:23.366Z,6.95
2022-09-28T10:20:50.260Z,6.75
2022-09-28T10:23:25.946Z,7.35
2022-09-28T10:25:54.265Z,6.72
2022-09-28T10:28:30.530Z,6.63
2022-09-28T10:30:57.441Z,7.55
2022-09-28T10:33:32.462Z,6.80
2022-09-28T10:36:02.462Z,6.35
2022-09-28T10:38:30.000Z,6.25
2022-09-28T10:41:00.940Z,7.10
2022-09-28T10:43:33.650Z,7.38
2022-09-28T10:46:11.243Z,8.50
2022-09-28T10:48:57.887Z,6.40
2022-09-28T10:51:49.967Z,7.10
2022-09-28T10:54:23.086Z,7.80
2022-09-28T10:56:50.106Z,6.90
2022-09-28T10:59:29.143Z,6.78
2022-09-28T11:02:02.790Z,6.85
2022-09-28T11:04:30.960Z,6.10
2022-09-28T11:07:01.349Z,6.77
2022-09-28T11:09:36.619Z,6.55
2022-09-28T11:12:04.867Z,5.75
2022-09-28T11:14:42.518Z,7.60
2022-09-28T11:17:16.846Z,5.55
2022-09-28T11:19:43.883Z,7.67
2022-09-28T11:22:23.920Z,5.30
2022-09-28T11:24:50.681Z,8.57
2022-09-28T11:27:25.511Z,5.32
2022-09-28T11:29:57.665Z,5.75
2022-09-28T11:32:25.544Z,5.23
2022-09-28T11:34:59.494Z,5.60
2022-09-28T11:37:43.742Z,6.28
2022-09-28T11:40:43.862Z,5.72
2022-09-28T11:43:16.882Z,9.23
2022-09-28T11:45:52.751Z,3.80
2022-09-28T11:48:24.160Z,5.07
2022-09-28T11:51:00.360Z,4.22
2022-09-28T11:53:31.691Z,5.97
2022-09-28T11:56:14.763Z,3.47
2022-09-28T11:58:45.004Z,3.97
2022-09-28T12:01:36.222Z,3.60
2022-09-28T12:04:07.184Z,4.18
2022-09-28T12:06:39.563Z,2.95
2022-09-28T12:09:19.926Z,2.85
2022-09-28T12:11:47.142Z,3.00
2022-09-28T12:14:27.313Z,2.83
2022-09-28T12:17:22.636Z,2.85
2022-09-28T12:19:53.546Z,2.30
2022-09-28T12:22:29.863Z,3.00
2022-09-28T12:24:56.843Z,4.27
2022-09-28T12:27:33.277Z,2.92
2022-09-28T12:30:02.921Z,2.97
2022-09-28T12:32:53.443Z,3.15
2022-09-28T12:35:32.982Z,4.05
2022-09-28T12:38:16.263Z,2.93
2022-09-28T12:40:53.609Z,2.67
2022-09-28T12:43:40.700Z,3.15
2022-09-28T12:46:58.234Z,3.10
2022-09-28T12:53:00.690Z,3.00
2022-09-28T12:55:29.741Z,3.15
2022-09-28T12:58:04.107Z,2.67
2022-09-28T13:00:39.180Z,3.53
2022-09-28T13:03:31.223Z,2.47
2022-09-28T13:06:10.462Z,4.03
2022-09-28T13:08:55.763Z,3.92
2022-09-28T13:11:45.503Z,4.30
2022-09-28T13:14:44.061Z,4.63
2022-09-28T13:17:34.331Z,2.85
2022-09-28T13:20:43.005Z,2.97
2022-09-28T13:23:12.667Z,3.63
2022-09-28T13:25:41.059Z,3.40
2022-09-28T13:28:08.403Z,4.20
2022-09-28T13:30:36.296Z,3.97
2022-09-28T13:33:04.424Z,2.90
2022-09-28T13:35:31.444Z,4.15
2022-09-28T13:38:17.518Z,3.10
2022-09-28T13:41:06.160Z,3.20
2022-09-28T13:43:35.781Z,3.28
2022-09-28T13:46:39.928Z,3.77
2022-09-28T13:49:17.425Z,3.45
2022-09-28T13:51:44.183Z,5.82
2022-09-28T13:54:41.403Z,3.72
2022-09-28T13:57:13.923Z,3.58
2022-09-28T14:00:04.243Z,4.80
2022-09-28T14:02:48.223Z,3.85
2022-09-28T14:05:30.428Z,3.88
2022-09-28T14:07:59.169Z,4.05
2022-09-28T14:10:52.173Z,3.30
2022-09-28T14:13:43.622Z,5.87
2022-09-28T14:16:23.901Z,4.80
2022-09-28T14:19:17.001Z,4.25
2022-09-28T14:22:09.146Z,3.50
2022-09-28T14:24:55.628Z,3.20
2022-09-28T14:27:37.884Z,3.67
2022-09-28T14:30:17.840Z,3.47
2022-09-28T14:32:57.651Z,3.80
2022-09-28T14:35:34.281Z,5.15
2022-09-28T14:38:23.028Z,3.35
2022-09-28T14:41:17.910Z,3.80
2022-09-28T14:43:44.649Z,4.70
2022-09-28T14:46:11.647Z,5.35
2022-09-28T14:48:50.383Z,4.38
2022-09-28T14:51:35.570Z,3.45
2022-09-28T14:54:10.223Z,5.57
2022-09-28T14:57:11.760Z,3.60
2022-09-28T14:59:43.608Z,3.63
2022-09-28T15:02:22.371Z,4.10
2022-09-28T15:05:00.155Z,3.50
2022-09-28T15:07:34.402Z,4.00
2022-09-28T15:10:02.544Z,4.10
2022-09-28T15:12:30.502Z,4.32
2022-09-28T15:15:08.682Z,4.25
2022-09-28T15:17:40.113Z,4.43
2022-09-28T15:20:30.059Z,4.40
2022-09-28T15:22:57.993Z,4.20
2022-09-28T15:25:28.401Z,4.60
2022-09-28T15:27:57.605Z,4.78
2022-09-28T15:30:36.737Z,4.65
2022-09-28T15:33:22.626Z,4.83
2022-09-28T15:36:04.307Z,4.68
2022-09-28T15:38:34.170Z,6.05
2022-09-28T15:41:04.881Z,5.00
2022-09-28T15:43:37.761Z,6.13
2022-09-28T15:46:13.541Z,5.43
2022-09-28T15:48:48.582Z,5.38
2022-09-28T15:51:15.446Z,5.47
2022-09-28T15:53:43.299Z,3.97
2022-09-28T15:56:10.366Z,4.80
2022-09-28T15:58:37.852Z,5.33
2022-09-28T16:01:28.858Z,5.95
2022-09-28T16:03:55.809Z,4.78
2022-09-28T16:06:23.202Z,6.20
2022-09-28T16:08:50.009Z,5.00
2022-09-28T16:11:31.883Z,6.23
2022-09-28T16:14:06.124Z,6.65
2022-09-28T16:16:41.156Z,5.93
2022-09-28T16:19:28.465Z,8.40
2022-09-28T16:21:55.922Z,6.47
2022-09-28T16:24:25.284Z,6.53
2022-09-28T16:27:02.633Z,6.70
2022-09-28T16:29:42.946Z,6.30
2022-09-28T16:32:34.707Z,6.57
2022-09-28T16:35:21.599Z,7.25
2022-09-28T16:37:49.714Z,7.03
2022-09-28T16:40:16.631Z,6.30
2022-09-28T16:42:48.866Z,6.70
2022-09-28T16:45:20.705Z,6.78
2022-09-28T16:47:48.022Z,7.18
2022-09-28T16:50:15.267Z,6.83
2022-09-28T16:53:00.353Z,7.50
2022-09-28T16:55:43.138Z,7.22
2022-09-28T16:58:10.063Z,7.65
2022-09-28T17:00:36.908Z,6.15
2022-09-28T17:03:11.699Z,6.57
2022-09-28T17:05:40.257Z,8.00
2022-09-28T17:08:07.142Z,8.10
2022-09-28T17:10:56.145Z,7.97
2022-09-28T17:13:33.445Z,8.60
2022-09-28T17:16:01.792Z,9.27
2022-09-28T17:18:31.941Z,9.32
2022-09-28T17:21:00.190Z,10.38
2022-09-28T17:23:27.020Z,9.90
2022-09-28T17:25:55.686Z,8.90
2022-09-28T17:28:24.314Z,9.73
2022-09-28T17:30:51.297Z,10.68
2022-09-28T17:33:18.235Z,11.00
2022-09-28T17:35:45.149Z,13.85
2022-09-28T17:38:12.880Z,12.05
2022-09-28T17:40:40.187Z,12.23
2022-09-28T17:43:07.102Z,13.43
2022-09-28T17:45:35.970Z,12.80
2022-09-28T17:48:02.735Z,13.23
2022-09-28T17:50:32.545Z,13.13
2022-09-28T17:53:02.855Z,12.33
2022-09-28T17:55:31.737Z,13.85
2022-09-28T17:57:59.474Z,14.65
2022-09-28T18:00:27.914Z,14.18
2022-09-28T18:02:55.642Z,13.13
2022-09-28T18:05:24.614Z,13.17
2022-09-28T18:07:52.154Z,13.18
2022-09-28T18:10:21.493Z,13.40
2022-09-28T18:12:49.254Z,13.57
2022-09-28T18:15:17.025Z,15.63
2022-09-28T18:17:43.835Z,15.80
2022-09-28T18:20:11.356Z,17.55
2022-09-28T18:22:38.479Z,17.40
2022-09-28T18:25:05.836Z,18.13
2022-09-28T18:27:34.457Z,18.00
2022-09-28T18:30:01.549Z,16.97
2022-09-28T18:32:28.317Z,18.77
2022-09-28T18:34:55.093Z,20.02
2022-09-28T18:37:21.874Z,20.25
2022-09-28T18:39:48.634Z,19.10
2022-09-28T18:42:15.654Z,19.40
2022-09-28T18:44:42.377Z,18.38
2022-09-28T18:47:09.175Z,21.42
2022-09-28T18:49:35.934Z,19.13
2022-09-28T18:52:02.952Z,20.20
2022-09-28T18:54:29.753Z,20.23
2022-09-28T18:56:57.251Z,20.30
2022-09-28T18:59:24.287Z,19.67
2022-09-28T19:01:51.824Z,22.08
2022-09-28T19:04:20.514Z,22.02
2022-09-28T19:06:51.853Z,20.53
2022-09-28T19:09:20.419Z,22.23
2022-09-28T19:11:48.053Z,26.25
2022-09-28T19:14:15.835Z,23.75
2022-09-28T19:16:43.778Z,22.92
2022-09-28T19:19:12.663Z,24.70
2022-09-28T19:21:40.385Z,22.75
2022-09-28T19:24:07.215Z,24.02
2022-09-28T19:26:34.159Z,21.15
2022-09-28T19:29:02.178Z,26.45
2022-09-28T19:31:29.136Z,21.80
2022-09-28T19:33:55.995Z,23.90
2022-09-28T19:36:24.155Z,22.35
2022-09-28T19:38:51.972Z,24.25
2022-09-28T19:41:40.751Z,22.10
2022-09-28T19:44:29.772Z,23.33
2022-09-28T19:47:14.682Z,23.35
2022-09-28T19:49:41.632Z,23.92
2022-09-28T19:52:16.535Z,20.85
2022-09-28T19:54:44.550Z,24.25
2022-09-28T19:57:16.248Z,22.53
2022-09-28T19:59:43.218Z,23.90
2022-09-28T20:02:10.301Z,22.70
2022-09-28T20:04:37.217Z,22.77
2022-09-28T20:07:05.002Z,22.90
2022-09-28T20:09:32.614Z,24.23
2022-09-28T20:11:59.441Z,23.23
2022-09-28T20:14:31.245Z,24.52
2022-09-28T20:17:01.074Z,23.17
2022-09-28T20:19:27.937Z,24.67
2022-09-28T20:21:58.642Z,26.00
2022-09-28T20:24:25.557Z,22.98
2022-09-28T20:26:52.346Z,24.42
2022-09-28T20:29:19.250Z,21.70
2022-09-28T20:31:46.175Z,23.60
2022-09-28T20:34:13.112Z,22.60
2022-09-28T20:36:40.014Z,22.65
2022-09-28T20:39:06.776Z,23.50
2022-09-28T20:41:34.833Z,20.75
2022-09-28T20:44:05.406Z,22.10
2022-09-28T20:46:33.972Z,23.77
2022-09-28T20:49:00.955Z,23.23
2022-09-28T20:51:27.834Z,24.38
2022-09-28T20:53:56.051Z,23.70
2022-09-28T20:56:23.515Z,22.85
2022-09-28T20:58:51.153Z,21.77
2022-09-28T21:01:20.343Z,24.25
2022-09-28T21:03:48.417Z,22.92
2022-09-28T21:06:16.514Z,21.33
2022-09-28T21:08:44.433Z,22.77
2022-09-28T21:11:14.174Z,22.00
2022-09-28T21:13:43.078Z,21.85
2022-09-28T21:16:18.943Z,22.02
2022-09-28T21:18:45.898Z,23.63
2022-09-28T21:21:17.415Z,26.15
2022-09-28T21:23:44.988Z,22.17
2022-09-28T21:26:16.232Z,24.30
2022-09-28T21:28:44.795Z,23.83
2022-09-28T21:31:12.017Z,24.30
2022-09-28T21:33:38.831Z,22.05
2022-09-28T21:36:06.714Z,20.37
2022-09-28T21:38:34.318Z,20.33
2022-09-28T21:41:01.222Z,20.25
2022-09-28T21:43:28.933Z,21.70
2022-09-28T21:45:56.122Z,21.40
2022-09-28T21:48:23.556Z,20.03
2022-09-28T21:51:10.046Z,18.60
2022-09-28T21:53:37.750Z,17.08
2022-09-28T21:56:05.918Z,19.00
2022-09-28T21:58:34.114Z,19.15
2022-09-28T22:01:08.074Z,20.80
2022-09-28T22:03:36.054Z,20.15
2022-09-28T22:06:03.741Z,17.27
2022-09-28T22:08:30.574Z,20.17
2022-09-28T22:11:08.679Z,20.58
2022-09-28T22:13:37.233Z,20.77
2022-09-28T22:16:04.456Z,20.92
2022-09-28T22:18:31.452Z,20.15
2022-09-28T22:21:02.413Z,21.45
2022-09-28T22:23:29.851Z,20.02
2022-09-28T22:26:12.753Z,21.23
2022-09-28T22:28:40.521Z,19.50
2022-09-28T22:31:07.419Z,21.92
2022-09-28T22:33:34.333Z,20.55
2022-09-28T22:36:01.381Z,19.23
2022-09-28T22:38:31.453Z,21.40
2022-09-28T22:40:58.502Z,22.67
2022-09-28T22:43:25.894Z,23.17
2022-09-28T22:46:12.003Z,21.48
2022-09-28T22:48:38.854Z,20.20
2022-09-28T22:51:06.415Z,20.73
2022-09-28T22:53:33.934Z,21.88
2022-09-28T22:56:01.620Z,21.45
2022-09-28T22:58:28.476Z,18.27
2022-09-28T23:00:57.154Z,21.20
2022-09-28T23:03:24.256Z,21.77
2022-09-28T23:05:57.354Z,18.50
2022-09-28T23:08:24.435Z,20.90
2022-09-28T23:10:51.524Z,19.27
2022-09-28T23:13:18.415Z,19.80
2022-09-28T23:15:55.247Z,17.07
2022-09-28T23:18:22.744Z,18.55
2022-09-28T23:20:54.175Z,17.75
2022-09-28T23:23:21.134Z,17.95
2022-09-28T23:25:48.003Z,18.33
2022-09-28T23:28:15.261Z,19.90
2022-09-28T23:30:42.094Z,19.02
2022-09-28T23:33:12.740Z,17.65
2022-09-28T23:35:39.672Z,17.63
2022-09-28T23:38:07.995Z,20.13
2022-09-28T23:40:34.963Z,20.40
2022-09-28T23:43:01.783Z,21.95
2022-09-28T23:45:28.575Z,18.95
2022-09-28T23:47:55.954Z,18.98
2022-09-28T23:50:23.814Z,19.83
2022-09-28T23:52:50.640Z,18.70
2022-09-28T23:55:17.493Z,20.23
2022-09-28T23:57:44.420Z,23.35
